Time;durP1;ratioP1;P1;durP2;ratioP2;P2;SDS_P1;SDS_P2;PMS_P1;PMS_P2;Temp;Humidity;BMP_temperature;BMP_pressure;BME280_temperature;BME280_humidity;BME280_pressure;Samples;Min_cycle;Max_cycle;Signal;HPM_P1;HPM_P2
2022/10/20 00:01:58;;;;;;;;;5.00;5.00;;;;;;;;5167099;28;8830;-72
2022/10/20 00:04:29;;;;;;;;;10.40;9.60;;;;;;;;5182047;28;8799;-72
2022/10/20 00:07:01;;;;;;;;;9.80;9.80;;;;;;;;5165609;28;8810;-72
2022/10/20 00:09:32;;;;;;;;;6.60;6.60;;;;;;;;5182259;28;8806;-71
2022/10/20 00:12:04;;;;;;;;;3.40;3.00;;;;;;;;5149382;28;8818;-72
2022/10/20 00:14:35;;;;;;;;;1.00;1.00;;;;;;;;5165813;28;8811;-72
2022/10/20 00:17:25;;;;;;;;;0.00;0.00;;;;;;;;5145538;28;8931;-72
2022/10/20 00:19:57;;;;;;;;;1.00;1.00;;;;;;;;5161767;28;8846;-72
2022/10/20 00:22:30;;;;;;;;;1.20;1.20;;;;;;;;5145480;28;8794;-72
2022/10/20 00:25:01;;;;;;;;;0.80;0.80;;;;;;;;5145259;28;8865;-71
2022/10/20 00:27:34;;;;;;;;;4.00;3.80;;;;;;;;5145540;28;8809;-70
2022/10/20 00:30:06;;;;;;;;;2.00;2.00;;;;;;;;5150938;28;8912;-71
2022/10/20 00:32:37;;;;;;;;;1.00;1.00;;;;;;;;5165526;28;8791;-71
2022/10/20 00:35:09;;;;;;;;;0.00;0.00;;;;;;;;5148750;28;8818;-71
2022/10/20 00:37:58;;;;;;;;;1.20;1.20;;;;;;;;5165418;28;8822;-71
2022/10/20 00:40:30;;;;;;;;;1.40;1.40;;;;;;;;5149140;28;8830;-71
2022/10/20 00:43:02;;;;;;;;;0.00;0.00;;;;;;;;5133000;28;8910;-71
2022/10/20 00:45:55;;;;;;;;;0.40;0.40;;;;;;;;5164391;28;8803;-72
2022/10/20 00:48:28;;;;;;;;;0.00;0.00;;;;;;;;5165265;28;8815;-71
2022/10/20 00:51:00;;;;;;;;;2.00;2.00;;;;;;;;5148275;28;8845;-71
2022/10/20 00:53:31;;;;;;;;;7.60;7.60;;;;;;;;5149044;28;8791;-71
2022/10/20 00:56:03;;;;;;;;;5.00;4.60;;;;;;;;5148610;28;9624;-71
2022/10/20 00:58:34;;;;;;;;;1.00;1.00;;;;;;;;5164817;28;8823;-71
2022/10/20 01:01:06;;;;;;;;;1.00;1.00;;;;;;;;5164572;28;8845;-71
2022/10/20 01:03:44;;;;;;;;;0.40;0.40;;;;;;;;5148768;28;8989;-71
2022/10/20 01:06:17;;;;;;;;;0.00;0.00;;;;;;;;5164899;28;8878;-71
2022/10/20 01:09:07;;;;;;;;;1.20;1.20;;;;;;;;5165748;28;8795;-72
2022/10/20 01:11:54;;;;;;;;;2.00;2.00;;;;;;;;5164716;28;8795;-71
2022/10/20 01:14:31;;;;;;;;;2.00;2.00;;;;;;;;5148304;28;8835;-71
2022/10/20 01:17:05;;;;;;;;;24.20;24.20;;;;;;;;5148051;28;8791;-72
2022/10/20 01:19:57;;;;;;;;;11.80;11.80;;;;;;;;5148483;28;8828;-72
2022/10/20 01:22:33;;;;;;;;;6.20;6.20;;;;;;;;5164169;28;8946;-72
2022/10/20 01:25:08;;;;;;;;;2.00;2.00;;;;;;;;5164540;28;8795;-73
2022/10/20 01:27:41;;;;;;;;;3.00;3.00;;;;;;;;5147812;28;8795;-72
2022/10/20 01:30:13;;;;;;;;;1.80;1.80;;;;;;;;5164354;28;8803;-72
2022/10/20 01:32:53;;;;;;;;;0.80;0.80;;;;;;;;5147860;28;8902;-72
2022/10/20 01:35:37;;;;;;;;;2.80;2.80;;;;;;;;5148062;28;8804;-72
2022/10/20 01:38:34;;;;;;;;;1.80;1.80;;;;;;;;5164191;28;8791;-72
2022/10/20 01:41:14;;;;;;;;;4.20;4.20;;;;;;;;5144317;28;8908;-72
2022/10/20 01:43:48;;;;;;;;;2.60;2.60;;;;;;;;5165128;28;8829;-72
2022/10/20 01:46:23;;;;;;;;;3.00;3.00;;;;;;;;5163904;28;8783;-72
2022/10/20 01:48:55;;;;;;;;;2.40;2.40;;;;;;;;5163852;28;8814;-72
2022/10/20 01:51:26;;;;;;;;;3.00;3.00;;;;;;;;5147608;28;8795;-71
2022/10/20 01:53:58;;;;;;;;;1.60;1.60;;;;;;;;5179786;28;8811;-72
2022/10/20 01:56:36;;;;;;;;;2.00;2.00;;;;;;;;5163743;28;8918;-72
2022/10/20 01:59:07;;;;;;;;;10.00;10.00;;;;;;;;5147375;28;8854;-72
2022/10/20 02:01:44;;;;;;;;;10.00;10.00;;;;;;;;5164511;28;8843;-73
2022/10/20 02:04:17;;;;;;;;;10.00;10.00;;;;;;;;5147556;28;8806;-73
2022/10/20 02:06:57;;;;;;;;;8.80;7.00;;;;;;;;5164002;28;8799;-73
2022/10/20 02:09:33;;;;;;;;;2.40;2.40;;;;;;;;5147226;28;8921;-71
2022/10/20 02:12:09;;;;;;;;;0.40;0.40;;;;;;;;5147263;28;8835;-71
2022/10/20 02:14:41;;;;;;;;;1.00;1.00;;;;;;;;5163949;28;8917;-73
2022/10/20 02:17:13;;;;;;;;;1.80;1.80;;;;;;;;5163604;28;8922;-73
2022/10/20 02:20:05;;;;;;;;;0.80;0.80;;;;;;;;5149834;28;8823;-72
2022/10/20 02:22:38;;;;;;;;;1.00;1.00;;;;;;;;5147197;28;8812;-72
2022/10/20 02:25:10;;;;;;;;;1.00;1.00;;;;;;;;5179623;28;8829;-73
2022/10/20 02:27:45;;;;;;;;;0.60;0.60;;;;;;;;5162946;28;8885;-71
2022/10/20 02:30:17;;;;;;;;;0.00;0.00;;;;;;;;5163313;28;8779;-71
2022/10/20 02:32:51;;;;;;;;;0.40;0.40;;;;;;;;5146810;28;8813;-73
2022/10/20 02:35:28;;;;;;;;;0.00;0.00;;;;;;;;5164645;28;8787;-72
2022/10/20 02:37:59;;;;;;;;;2.00;2.00;;;;;;;;5163218;28;8791;-72
2022/10/20 02:40:30;;;;;;;;;16.40;16.40;;;;;;;;5162738;28;8845;-72
2022/10/20 02:43:19;;;;;;;;;59.60;48.00;;;;;;;;5149547;28;8803;-73
2022/10/20 02:45:51;;;;;;;;;31.20;26.20;;;;;;;;5162941;28;8811;-73
2022/10/20 02:48:40;;;;;;;;;45.20;35.80;;;;;;;;5162526;28;8824;-73
2022/10/20 02:51:12;;;;;;;;;41.00;38.80;;;;;;;;5146275;28;8822;-72
2022/10/20 02:53:43;;;;;;;;;31.40;30.60;;;;;;;;5179232;28;8870;-71
2022/10/20 02:56:16;;;;;;;;;31.00;28.40;;;;;;;;5147019;28;8799;-71
2022/10/20 02:58:48;;;;;;;;;28.00;27.40;;;;;;;;5162680;28;8920;-71
2022/10/20 03:01:21;;;;;;;;;31.60;30.20;;;;;;;;5162594;28;8823;-72
2022/10/20 03:03:57;;;;;;;;;22.60;21.00;;;;;;;;5163158;28;8794;-72
2022/10/20 03:06:28;;;;;;;;;19.00;18.80;;;;;;;;5146620;28;8799;-72
2022/10/20 03:09:17;;;;;;;;;18.80;18.80;;;;;;;;5163382;28;8791;-71
2022/10/20 03:11:49;;;;;;;;;32.00;29.60;;;;;;;;5166851;28;9518;-71
2022/10/20 03:14:21;;;;;;;;;31.20;31.00;;;;;;;;5166327;28;8918;-71
2022/10/20 03:16:52;;;;;;;;;26.60;26.20;;;;;;;;5167508;28;8788;-71
2022/10/20 03:19:23;;;;;;;;;20.40;20.40;;;;;;;;5150688;28;8826;-71
2022/10/20 03:21:55;;;;;;;;;22.00;22.00;;;;;;;;5166539;28;9538;-71
2022/10/20 03:24:26;;;;;;;;;10.00;10.00;;;;;;;;5150133;28;8804;-72
2022/10/20 03:26:57;;;;;;;;;25.40;25.20;;;;;;;;5166872;28;8841;-72
2022/10/20 03:29:29;;;;;;;;;28.60;28.20;;;;;;;;5179526;28;8819;-73
2022/10/20 03:32:00;;;;;;;;;36.60;30.40;;;;;;;;5150336;28;9538;-73
2022/10/20 03:34:50;;;;;;;;;26.80;26.80;;;;;;;;5165767;28;8807;-73
2022/10/20 03:37:21;;;;;;;;;31.20;27.60;;;;;;;;5148389;28;8799;-74
2022/10/20 03:40:10;;;;;;;;;13.80;13.60;;;;;;;;5166432;28;8819;-72
2022/10/20 03:43:00;;;;;;;;;14.80;14.60;;;;;;;;5165937;28;8806;-71
2022/10/20 03:45:31;;;;;;;;;25.40;22.00;;;;;;;;5150022;28;8810;-71
2022/10/20 03:48:02;;;;;;;;;9.00;9.00;;;;;;;;5182424;28;8783;-73
2022/10/20 03:50:33;;;;;;;;;4.80;4.40;;;;;;;;5167185;28;8791;-73
2022/10/20 03:53:04;;;;;;;;;9.80;9.80;;;;;;;;5166744;28;8835;-71
2022/10/20 03:55:36;;;;;;;;;4.60;4.60;;;;;;;;5149385;28;9514;-71
2022/10/20 03:58:26;;;;;;;;;6.40;6.40;;;;;;;;5167257;28;8819;-70
2022/10/20 04:00:57;;;;;;;;;2.00;2.00;;;;;;;;5149403;28;8952;-70
2022/10/20 04:03:28;;;;;;;;;3.80;3.20;;;;;;;;5149472;28;8795;-71
2022/10/20 04:05:59;;;;;;;;;2.00;2.00;;;;;;;;5166560;28;8817;-72
2022/10/20 04:08:48;;;;;;;;;3.00;3.00;;;;;;;;5151805;28;8933;-71
2022/10/20 04:11:20;;;;;;;;;6.00;6.00;;;;;;;;5165467;28;8803;-72
2022/10/20 04:13:51;;;;;;;;;1.60;1.40;;;;;;;;5165028;28;8838;-72
2022/10/20 04:16:23;;;;;;;;;2.00;2.00;;;;;;;;5165446;28;8826;-69
2022/10/20 04:18:54;;;;;;;;;2.60;2.60;;;;;;;;5166888;28;8826;-68
2022/10/20 04:21:25;;;;;;;;;5.00;5.00;;;;;;;;5181267;28;8795;-70
2022/10/20 04:23:56;;;;;;;;;3.80;3.80;;;;;;;;5182940;28;8811;-69
2022/10/20 04:26:27;;;;;;;;;3.00;3.00;;;;;;;;5166326;28;8910;-71
2022/10/20 04:28:58;;;;;;;;;5.20;5.20;;;;;;;;5165292;28;8823;-70
2022/10/20 04:31:48;;;;;;;;;2.40;2.40;;;;;;;;5164916;28;8841;-69
2022/10/20 04:34:37;;;;;;;;;2.00;2.00;;;;;;;;5179034;28;8871;-70
2022/10/20 04:37:08;;;;;;;;;4.20;4.20;;;;;;;;5165780;28;8795;-70
2022/10/20 04:39:39;;;;;;;;;5.80;5.80;;;;;;;;5181499;28;9592;-69
2022/10/20 04:42:10;;;;;;;;;5.40;5.40;;;;;;;;5164804;28;8811;-71
2022/10/20 04:44:59;;;;;;;;;3.20;3.20;;;;;;;;5166327;28;8796;-71
2022/10/20 04:47:31;;;;;;;;;6.40;6.40;;;;;;;;5164331;28;8803;-72
2022/10/20 04:50:04;;;;;;;;;6.40;6.40;;;;;;;;5165921;28;8889;-71
2022/10/20 04:52:35;;;;;;;;;10.20;10.20;;;;;;;;5163908;28;9687;-72
2022/10/20 04:55:06;;;;;;;;;10.00;10.00;;;;;;;;5165825;28;8957;-69
2022/10/20 04:57:37;;;;;;;;;6.40;6.40;;;;;;;;5180695;28;8811;-69
2022/10/20 05:00:09;;;;;;;;;9.60;8.80;;;;;;;;5164409;28;8842;-71
2022/10/20 05:02:40;;;;;;;;;3.40;3.40;;;;;;;;5165886;28;8906;-71
2022/10/20 05:05:11;;;;;;;;;5.60;5.60;;;;;;;;5164595;28;8795;-72
2022/10/20 05:07:42;;;;;;;;;4.20;3.40;;;;;;;;5165289;28;8799;-72
2022/10/20 05:10:13;;;;;;;;;5.00;5.00;;;;;;;;5165125;28;8783;-72
2022/10/20 05:12:44;;;;;;;;;5.20;3.40;;;;;;;;5164015;28;8790;-71
2022/10/20 05:15:15;;;;;;;;;10.75;10.75;;;;;;;;5180532;28;8795;-71
2022/10/20 05:17:46;;;;;;;;;14.00;11.80;;;;;;;;5165273;28;10000;-70
2022/10/20 05:20:17;;;;;;;;;5.00;5.00;;;;;;;;5145717;28;8854;-73
2022/10/20 05:22:48;;;;;;;;;10.00;10.00;;;;;;;;5163359;28;9416;-73
2022/10/20 05:25:38;;;;;;;;;5.80;5.80;;;;;;;;5163638;28;9513;-72
2022/10/20 05:28:09;;;;;;;;;7.00;7.00;;;;;;;;5162471;28;8781;-73
2022/10/20 05:30:41;;;;;;;;;7.25;7.25;;;;;;;;5163100;28;8836;-79
2022/10/20 05:33:12;;;;;;;;;12.40;11.80;;;;;;;;5161801;28;9986;-71
2022/10/20 05:35:43;;;;;;;;;10.80;10.80;;;;;;;;5163162;28;9765;-71
2022/10/20 05:38:14;;;;;;;;;19.80;17.20;;;;;;;;5162399;28;8803;-72
2022/10/20 05:40:45;;;;;;;;;26.80;26.00;;;;;;;;5163163;28;8862;-73
2022/10/20 05:43:16;;;;;;;;;15.80;14.20;;;;;;;;5162020;28;9534;-72
2022/10/20 05:46:05;;;;;;;;;28.60;24.60;;;;;;;;5163223;28;8834;-72
2022/10/20 05:48:36;;;;;;;;;22.40;22.00;;;;;;;;5162176;28;8799;-75
2022/10/20 05:51:07;;;;;;;;;51.60;43.60;;;;;;;;5162304;28;8818;-72
2022/10/20 05:53:39;;;;;;;;;46.00;41.00;;;;;;;;5157958;28;8817;-73
2022/10/20 05:56:11;;;;;;;;;18.60;18.60;;;;;;;;5141637;28;8814;-72
2022/10/20 05:58:43;;;;;;;;;11.00;11.00;;;;;;;;5141653;28;8822;-71
2022/10/20 06:01:20;;;;;;;;;14.40;14.40;;;;;;;;5141990;28;8845;-72
2022/10/20 06:03:53;;;;;;;;;22.80;22.80;;;;;;;;5142434;28;8796;-73
2022/10/20 06:06:25;;;;;;;;;18.40;18.20;;;;;;;;5142931;28;8802;-72
2022/10/20 06:08:57;;;;;;;;;16.40;16.20;;;;;;;;5144260;28;8801;-72
2022/10/20 06:11:47;;;;;;;;;15.60;13.80;;;;;;;;5176558;28;8847;-74
2022/10/20 06:14:21;;;;;;;;;16.60;16.60;;;;;;;;5146763;28;8783;-75
2022/10/20 06:17:10;;;;;;;;;6.60;6.60;;;;;;;;5161869;28;8897;-75
2022/10/20 06:19:41;;;;;;;;;14.00;14.00;;;;;;;;5143838;28;8825;-75
2022/10/20 06:22:12;;;;;;;;;7.40;7.40;;;;;;;;5143847;28;8806;-74
2022/10/20 06:24:43;;;;;;;;;1.40;1.40;;;;;;;;5154119;28;8815;-74
2022/10/20 06:27:14;;;;;;;;;1.60;1.60;;;;;;;;5163690;28;9511;-74
2022/10/20 06:29:46;;;;;;;;;4.20;4.20;;;;;;;;5161746;28;8831;-73
2022/10/20 06:32:17;;;;;;;;;3.80;3.20;;;;;;;;5160268;28;8839;-72
2022/10/20 06:34:48;;;;;;;;;4.20;4.20;;;;;;;;5147039;28;8808;-72
2022/10/20 06:37:19;;;;;;;;;1.00;1.00;;;;;;;;5163033;28;8870;-72
2022/10/20 06:39:50;;;;;;;;;2.00;2.00;;;;;;;;5146343;28;8831;-71
2022/10/20 06:42:21;;;;;;;;;2.80;2.80;;;;;;;;5146803;28;8807;-71
2022/10/20 06:44:54;;;;;;;;;0.60;0.60;;;;;;;;5162125;28;8949;-71
2022/10/20 06:47:25;;;;;;;;;0.20;0.20;;;;;;;;5163085;28;8811;-71
2022/10/20 06:49:56;;;;;;;;;1.00;1.00;;;;;;;;5162633;28;8818;-70
2022/10/20 06:52:27;;;;;;;;;1.80;1.80;;;;;;;;5162055;28;8865;-72
2022/10/20 06:54:58;;;;;;;;;1.00;1.00;;;;;;;;5145799;28;8791;-70
2022/10/20 06:57:30;;;;;;;;;1.60;1.60;;;;;;;;5162460;28;8800;-70
2022/10/20 07:00:01;;;;;;;;;0.20;0.20;;;;;;;;5162861;28;8835;-69
2022/10/20 07:02:51;;;;;;;;;1.20;1.00;;;;;;;;5149234;28;8934;-72
2022/10/20 07:05:22;;;;;;;;;2.40;2.40;;;;;;;;5179429;28;8771;-70
2022/10/20 07:07:53;;;;;;;;;1.60;1.60;;;;;;;;5162876;28;8787;-71
2022/10/20 07:10:24;;;;;;;;;1.00;1.00;;;;;;;;5179029;28;8787;-71
2022/10/20 07:12:55;;;;;;;;;3.00;3.00;;;;;;;;5162649;28;8792;-70
2022/10/20 07:15:27;;;;;;;;;2.00;2.00;;;;;;;;5162904;28;8806;-71
2022/10/20 07:17:58;;;;;;;;;2.60;2.60;;;;;;;;5147017;28;9610;-73
2022/10/20 07:20:29;;;;;;;;;7.60;7.60;;;;;;;;5163782;28;8827;-73
2022/10/20 07:23:00;;;;;;;;;1.00;1.00;;;;;;;;5163173;28;8803;-70
2022/10/20 07:25:49;;;;;;;;;2.00;2.00;;;;;;;;5163686;28;11482;-72
2022/10/20 07:28:20;;;;;;;;;3.00;3.00;;;;;;;;5163832;28;9535;-72
2022/10/20 07:31:12;;;;;;;;;2.00;2.00;;;;;;;;5162672;28;8803;-71
2022/10/20 07:33:43;;;;;;;;;2.00;2.00;;;;;;;;5162571;28;8844;-71
2022/10/20 07:36:22;;;;;;;;;1.00;1.00;;;;;;;;5146413;28;8815;-73
2022/10/20 07:38:54;;;;;;;;;8.60;8.60;;;;;;;;5162309;28;8842;-73
2022/10/20 07:41:26;;;;;;;;;2.40;2.40;;;;;;;;5162917;28;8877;-72
2022/10/20 07:43:57;;;;;;;;;2.00;2.00;;;;;;;;5146195;28;8819;-73
2022/10/20 07:46:28;;;;;;;;;2.00;2.00;;;;;;;;5164045;28;8779;-73
2022/10/20 07:48:59;;;;;;;;;2.00;2.00;;;;;;;;5164167;28;8779;-73
2022/10/20 07:51:31;;;;;;;;;5.20;5.20;;;;;;;;5147177;28;8794;-73
2022/10/20 07:54:05;;;;;;;;;2.00;2.00;;;;;;;;5146213;28;8787;-72
2022/10/20 07:56:38;;;;;;;;;0.60;0.00;;;;;;;;5165519;28;8853;-72
2022/10/20 07:59:28;;;;;;;;;0.00;0.00;;;;;;;;5167092;28;8847;-73
2022/10/20 08:01:59;;;;;;;;;0.00;0.00;;;;;;;;5166005;28;8807;-72
2022/10/20 08:04:30;;;;;;;;;0.60;0.60;;;;;;;;5167296;28;8861;-72
2022/10/20 08:07:01;;;;;;;;;1.00;1.00;;;;;;;;5182596;28;8885;-72
2022/10/20 08:09:32;;;;;;;;;2.50;2.25;;;;;;;;5166637;28;8925;-72
2022/10/20 08:12:21;;;;;;;;;0.60;0.60;;;;;;;;5166207;28;8791;-73
2022/10/20 08:14:52;;;;;;;;;1.00;1.00;;;;;;;;5167311;28;9605;-73
2022/10/20 08:17:23;;;;;;;;;1.60;1.60;;;;;;;;5166628;28;11496;-74
2022/10/20 08:19:54;;;;;;;;;2.60;2.60;;;;;;;;5165554;28;8845;-73
2022/10/20 08:22:25;;;;;;;;;1.60;0.80;;;;;;;;5181742;28;8768;-73
2022/10/20 08:24:56;;;;;;;;;0.80;0.80;;;;;;;;5167206;28;8817;-72
2022/10/20 08:27:45;;;;;;;;;2.40;2.40;;;;;;;;5165692;28;8877;-70
2022/10/20 08:30:35;;;;;;;;;3.00;3.00;;;;;;;;5166687;28;8806;-75
2022/10/20 08:33:06;;;;;;;;;2.00;2.00;;;;;;;;5165132;28;9506;-83
2022/10/20 08:35:37;;;;;;;;;0.00;0.00;;;;;;;;5164258;28;8835;-71
2022/10/20 08:38:08;;;;;;;;;0.00;0.00;;;;;;;;5165163;28;8803;-71
2022/10/20 08:40:40;;;;;;;;;2.00;2.00;;;;;;;;5180344;28;8862;-72
2022/10/20 08:43:16;;;;;;;;;1.00;1.00;;;;;;;;5181519;28;12190;-72
2022/10/20 08:46:10;;;;;;;;;1.00;1.00;;;;;;;;5164397;28;8811;-71
2022/10/20 08:48:43;;;;;;;;;0.20;0.20;;;;;;;;5162859;28;9538;-73
2022/10/20 08:51:15;;;;;;;;;0.00;0.00;;;;;;;;5148928;28;8799;-72
2022/10/20 08:53:48;;;;;;;;;0.00;0.00;;;;;;;;5166114;28;8810;-71
2022/10/20 08:56:21;;;;;;;;;2.60;2.60;;;;;;;;5164818;28;8852;-72
2022/10/20 08:58:52;;;;;;;;;2.00;2.00;;;;;;;;5164842;28;9564;-72
2022/10/20 09:01:41;;;;;;;;;4.40;4.40;;;;;;;;5164675;28;8900;-72
2022/10/20 09:04:19;;;;;;;;;1.00;1.00;;;;;;;;5164983;28;8771;-71
2022/10/20 09:06:57;;;;;;;;;2.00;2.00;;;;;;;;5132146;28;11420;-71
2022/10/20 09:09:29;;;;;;;;;3.00;3.00;;;;;;;;5165990;28;8830;-71
2022/10/20 09:12:03;;;;;;;;;4.20;3.00;;;;;;;;5164745;28;8776;-71
2022/10/20 09:14:36;;;;;;;;;7.60;6.60;;;;;;;;5132239;28;8771;-71
2022/10/20 09:17:13;;;;;;;;;0.00;0.00;;;;;;;;5166022;28;8882;-71
2022/10/20 09:20:04;;;;;;;;;2.60;2.60;;;;;;;;5181066;28;8815;-71
2022/10/20 09:22:35;;;;;;;;;2.00;2.00;;;;;;;;5165366;28;9527;-71
2022/10/20 09:25:11;;;;;;;;;6.60;6.60;;;;;;;;5180724;28;8830;-71
2022/10/20 09:27:44;;;;;;;;;8.40;8.40;;;;;;;;5164509;28;8925;-71
2022/10/20 09:30:14;;;;;;;;;9.80;9.80;;;;;;;;5163719;28;8827;-70
2022/10/20 09:32:46;;;;;;;;;3.25;2.75;;;;;;;;5147881;28;8949;-71
2022/10/20 09:35:28;;;;;;;;;1.00;1.00;;;;;;;;5164124;28;8956;-71
2022/10/20 09:38:22;;;;;;;;;4.20;4.20;;;;;;;;5165536;28;8796;-70
2022/10/20 09:41:13;;;;;;;;;2.60;2.60;;;;;;;;5163757;28;8831;-70
2022/10/20 09:43:56;;;;;;;;;3.00;3.00;;;;;;;;5162136;28;8848;-70
2022/10/20 09:46:33;;;;;;;;;2.00;2.00;;;;;;;;5159495;28;8826;-70
2022/10/20 09:49:05;;;;;;;;;1.00;1.00;;;;;;;;5128057;28;8886;-70
2022/10/20 09:51:37;;;;;;;;;10.80;9.60;;;;;;;;5160061;28;8803;-70
2022/10/20 09:54:15;;;;;;;;;8.00;8.00;;;;;;;;5147301;28;8787;-70
2022/10/20 09:56:48;;;;;;;;;3.60;3.60;;;;;;;;5147477;28;8822;-71
2022/10/20 09:59:19;;;;;;;;;3.40;3.40;;;;;;;;5163574;28;8823;-71
2022/10/20 10:01:57;;;;;;;;;3.25;3.25;;;;;;;;5162070;28;8841;-72
2022/10/20 10:04:48;;;;;;;;;4.00;4.00;;;;;;;;5177876;28;11458;-70
2022/10/20 10:07:25;;;;;;;;;13.80;13.80;;;;;;;;5147537;28;8996;-71
2022/10/20 10:10:02;;;;;;;;;5.20;5.20;;;;;;;;5147420;28;8801;-72
2022/10/20 10:12:34;;;;;;;;;2.00;2.00;;;;;;;;5131247;28;8865;-73
2022/10/20 10:15:31;;;;;;;;;0.80;0.80;;;;;;;;5163261;28;8783;-71
2022/10/20 10:18:13;;;;;;;;;6.00;6.00;;;;;;;;5158819;28;8787;-70
2022/10/20 10:20:44;;;;;;;;;2.60;2.60;;;;;;;;5146271;28;8819;-71
2022/10/20 10:23:18;;;;;;;;;5.60;4.60;;;;;;;;5163583;28;8877;-70
2022/10/20 10:25:50;;;;;;;;;4.20;4.20;;;;;;;;5163275;28;8783;-70
2022/10/20 10:28:32;;;;;;;;;1.00;1.00;;;;;;;;5179431;28;8799;-70
2022/10/20 10:31:22;;;;;;;;;4.80;4.80;;;;;;;;5163200;28;8801;-70
2022/10/20 10:34:16;;;;;;;;;2.00;2.00;;;;;;;;5164557;28;8802;-70
2022/10/20 10:36:47;;;;;;;;;8.60;7.60;;;;;;;;5136835;28;8827;-70
2022/10/20 10:39:19;;;;;;;;;5.75;5.75;;;;;;;;5162797;28;8831;-70
2022/10/20 10:42:08;;;;;;;;;3.00;3.00;;;;;;;;5162588;28;12181;-72
2022/10/20 10:44:45;;;;;;;;;1.00;1.00;;;;;;;;5162380;28;9549;-70
2022/10/20 10:47:35;;;;;;;;;15.40;15.40;;;;;;;;5162834;28;8920;-71
2022/10/20 10:50:33;;;;;;;;;29.40;28.80;;;;;;;;5164292;28;8784;-71
2022/10/20 10:53:28;;;;;;;;;0.00;0.00;;;;;;;;5163296;28;8788;-71
2022/10/20 10:56:15;;;;;;;;;1.60;1.60;;;;;;;;5136539;28;8788;-71
2022/10/20 10:59:24;;;;;;;;;3.00;3.00;;;;;;;;5163862;28;8933;-71
2022/10/20 11:02:10;;;;;;;;;2.60;2.60;;;;;;;;5146752;28;8823;-71
2022/10/20 11:04:41;;;;;;;;;3.40;3.00;;;;;;;;5146491;28;8934;-71
2022/10/20 11:07:15;;;;;;;;;2.00;2.00;;;;;;;;5146869;28;8795;-71
2022/10/20 11:10:09;;;;;;;;;2.00;2.00;;;;;;;;5163228;28;8945;-69
2022/10/20 11:12:48;;;;;;;;;2.80;2.80;;;;;;;;5162789;28;8820;-70
2022/10/20 11:15:44;;;;;;;;;3.00;3.00;;;;;;;;5164181;28;9486;-69
2022/10/20 11:18:33;;;;;;;;;7.00;7.00;;;;;;;;5163810;28;8814;-70
2022/10/20 11:21:23;;;;;;;;;12.00;11.20;;;;;;;;5179124;28;8827;-71
2022/10/20 11:23:57;;;;;;;;;11.80;11.00;;;;;;;;5163253;28;8850;-71
2022/10/20 11:26:33;;;;;;;;;16.20;13.80;;;;;;;;5162523;28;8853;-71
2022/10/20 11:29:08;;;;;;;;;14.20;13.60;;;;;;;;5162911;28;8791;-71
2022/10/20 11:31:41;;;;;;;;;13.60;13.00;;;;;;;;5165120;28;9604;-70
2022/10/20 11:34:14;;;;;;;;;14.40;14.00;;;;;;;;5166521;28;9648;-72
2022/10/20 11:36:48;;;;;;;;;16.40;14.60;;;;;;;;5166184;28;8815;-70
2022/10/20 11:40:04;;;;;;;;;4.40;3.00;;;;;;;;5166684;28;8855;-71
2022/10/20 11:43:12;;;;;;;;;5.60;5.60;;;;;;;;5161636;28;9035;-71
2022/10/20 11:45:43;;;;;;;;;7.60;7.60;;;;;;;;5165902;28;8795;-70
2022/10/20 11:48:25;;;;;;;;;4.50;4.50;;;;;;;;5165833;28;8822;-72
2022/10/20 11:51:37;;;;;;;;;6.40;6.40;;;;;;;;5167296;28;10376;-70
2022/10/20 11:54:28;;;;;;;;;7.20;7.20;;;;;;;;5182225;28;8842;-69
2022/10/20 11:57:02;;;;;;;;;19.00;18.00;;;;;;;;5165872;28;8795;-71
2022/10/20 11:59:57;;;;;;;;;18.00;17.40;;;;;;;;5165825;28;8874;-71
2022/10/20 12:02:47;;;;;;;;;9.00;9.00;;;;;;;;5165683;28;8961;-70
2022/10/20 12:05:36;;;;;;;;;8.40;7.20;;;;;;;;5167807;28;8796;-70
2022/10/20 12:08:07;;;;;;;;;1.20;0.00;;;;;;;;5167180;28;8937;-70
2022/10/20 12:10:57;;;;;;;;;36.50;34.75;;;;;;;;5165663;28;8922;-71
2022/10/20 12:13:38;;;;;;;;;58.60;48.80;;;;;;;;5165313;28;8965;-70
2022/10/20 12:16:46;;;;;;;;;15.20;14.40;;;;;;;;5179649;28;8929;-70
2022/10/20 12:19:28;;;;;;;;;3.00;3.00;;;;;;;;5165564;28;8811;-73
2022/10/20 12:22:25;;;;;;;;;22.20;21.40;;;;;;;;5166316;28;8802;-71
2022/10/20 12:24:56;;;;;;;;;70.00;53.00;;;;;;;;5165467;28;8780;-70
2022/10/20 12:27:27;;;;;;;;;63.00;49.00;;;;;;;;5166440;28;8850;-71
2022/10/20 12:30:03;;;;;;;;;18.80;18.60;;;;;;;;5165236;28;11582;-71
2022/10/20 12:32:36;;;;;;;;;2.00;2.00;;;;;;;;5182316;28;9486;-70
2022/10/20 12:35:27;;;;;;;;;17.20;17.20;;;;;;;;5165223;28;8865;-70
2022/10/20 12:38:03;;;;;;;;;24.00;22.60;;;;;;;;5165546;28;8811;-71
2022/10/20 12:40:44;;;;;;;;;19.00;19.00;;;;;;;;5148676;28;8905;-72
2022/10/20 12:43:22;;;;;;;;;8.60;7.60;;;;;;;;5180968;28;8800;-72
2022/10/20 12:45:56;;;;;;;;;6.00;6.00;;;;;;;;5148689;28;8807;-71
2022/10/20 12:48:27;;;;;;;;;11.80;11.80;;;;;;;;5166171;28;8775;-70
2022/10/20 12:51:05;;;;;;;;;56.20;45.60;;;;;;;;5165652;28;8822;-72
2022/10/20 12:53:36;;;;;;;;;70.60;55.80;;;;;;;;5165070;28;8917;-72
2022/10/20 12:56:09;;;;;;;;;37.00;35.80;;;;;;;;5165864;28;8834;-72
2022/10/20 12:58:58;;;;;;;;;9.00;7.60;;;;;;;;5148889;28;8823;-71
2022/10/20 13:01:30;;;;;;;;;13.00;13.00;;;;;;;;5164382;28;8841;-73
2022/10/20 13:04:01;;;;;;;;;49.40;41.40;;;;;;;;5166159;28;8794;-72
2022/10/20 13:06:32;;;;;;;;;142.00;98.00;;;;;;;;5165586;28;8791;-71
2022/10/20 13:09:03;;;;;;;;;137.33;105.33;;;;;;;;5132166;28;11730;-72
2022/10/20 13:11:37;;;;;;;;;69.40;51.20;;;;;;;;5131946;28;8811;-73
2022/10/20 13:14:11;;;;;;;;;42.00;38.40;;;;;;;;5132165;28;8799;-72
2022/10/20 13:16:47;;;;;;;;;15.60;14.60;;;;;;;;5132335;28;8795;-71
2022/10/20 13:19:21;;;;;;;;;17.40;16.80;;;;;;;;5164618;28;8842;-71
2022/10/20 13:21:52;;;;;;;;;13.80;13.80;;;;;;;;5164035;28;8829;-72
2022/10/20 13:24:33;;;;;;;;;11.20;11.20;;;;;;;;5148044;28;8823;-76
2022/10/20 13:27:08;;;;;;;;;14.40;14.40;;;;;;;;5148583;28;8841;-73
2022/10/20 13:29:42;;;;;;;;;6.00;6.00;;;;;;;;5148377;28;8811;-71
2022/10/20 13:32:47;;;;;;;;;37.00;36.40;;;;;;;;5164163;28;8795;-72
2022/10/20 13:35:37;;;;;;;;;39.20;35.80;;;;;;;;5148109;28;8850;-72
2022/10/20 13:38:29;;;;;;;;;8.00;8.00;;;;;;;;5165131;28;8787;-72
2022/10/20 13:41:09;;;;;;;;;11.00;11.00;;;;;;;;5162094;28;8962;-72
2022/10/20 13:43:46;;;;;;;;;38.00;33.20;;;;;;;;5162722;28;8803;-68
2022/10/20 13:46:40;;;;;;;;;99.40;75.20;;;;;;;;5163726;28;8807;-71
2022/10/20 13:49:18;;;;;;;;;99.20;77.60;;;;;;;;5179527;28;8799;-71
2022/10/20 13:51:50;;;;;;;;;104.00;81.80;;;;;;;;5162176;28;9552;-71
2022/10/20 13:54:23;;;;;;;;;48.00;42.40;;;;;;;;5155111;28;8897;-72
2022/10/20 13:56:55;;;;;;;;;20.80;19.60;;;;;;;;5146255;28;8900;-72
2022/10/20 13:59:27;;;;;;;;;52.00;43.60;;;;;;;;5162494;28;8831;-79
2022/10/20 14:02:25;;;;;;;;;84.60;68.60;;;;;;;;5145976;28;9525;-76
2022/10/20 14:05:18;;;;;;;;;29.60;27.00;;;;;;;;5148617;28;8791;-76
2022/10/20 14:07:49;;;;;;;;;11.80;11.80;;;;;;;;5147023;28;8818;-74
2022/10/20 14:10:42;;;;;;;;;17.40;17.20;;;;;;;;5176881;28;8803;-75
2022/10/20 14:13:14;;;;;;;;;47.20;42.80;;;;;;;;5167768;28;8817;-75
2022/10/20 14:15:49;;;;;;;;;17.60;17.60;;;;;;;;5144319;28;9539;-72
2022/10/20 14:18:27;;;;;;;;;32.80;31.40;;;;;;;;5126653;28;8790;-72
2022/10/20 14:21:01;;;;;;;;;26.20;25.20;;;;;;;;5143225;28;8846;-74
2022/10/20 14:23:34;;;;;;;;;27.60;27.00;;;;;;;;5144894;28;8801;-73
2022/10/20 14:26:06;;;;;;;;;87.40;67.20;;;;;;;;5163205;28;8845;-75
2022/10/20 14:28:38;;;;;;;;;75.60;59.80;;;;;;;;5163110;28;8795;-74
2022/10/20 14:31:09;;;;;;;;;51.60;42.20;;;;;;;;5164008;28;8905;-74
2022/10/20 14:33:58;;;;;;;;;90.80;74.60;;;;;;;;5149471;28;8815;-73
2022/10/20 14:36:30;;;;;;;;;54.80;44.40;;;;;;;;5163133;28;8787;-72
2022/10/20 14:39:03;;;;;;;;;28.20;28.20;;;;;;;;5163951;28;8833;-72
2022/10/20 14:41:34;;;;;;;;;25.80;24.20;;;;;;;;5162594;28;8763;-73
2022/10/20 14:44:07;;;;;;;;;19.20;18.20;;;;;;;;5165299;28;8796;-74
2022/10/20 14:46:38;;;;;;;;;14.40;13.40;;;;;;;;5163554;28;8911;-72
2022/10/20 14:49:22;;;;;;;;;15.80;15.00;;;;;;;;5162995;28;9004;-75
2022/10/20 14:51:55;;;;;;;;;55.20;44.80;;;;;;;;5161184;28;8784;-75
2022/10/20 14:54:29;;;;;;;;;78.40;62.00;;;;;;;;5146483;28;8772;-77
2022/10/20 14:57:00;;;;;;;;;39.00;37.40;;;;;;;;5178759;28;9549;-73
2022/10/20 14:59:32;;;;;;;;;21.00;20.75;;;;;;;;5162861;28;8851;-73
2022/10/20 15:02:10;;;;;;;;;23.40;21.80;;;;;;;;5145190;28;10259;-75
2022/10/20 15:04:42;;;;;;;;;28.40;27.20;;;;;;;;5163957;28;8826;-74
2022/10/20 15:07:27;;;;;;;;;27.20;23.20;;;;;;;;5165850;28;8823;-76
2022/10/20 15:10:17;;;;;;;;;12.80;12.80;;;;;;;;5168228;28;8823;-75
2022/10/20 15:12:51;;;;;;;;;14.60;14.60;;;;;;;;5183183;28;8799;-73
2022/10/20 15:15:23;;;;;;;;;10.60;10.40;;;;;;;;5166845;28;8818;-73
2022/10/20 15:18:03;;;;;;;;;10.80;9.80;;;;;;;;5166713;28;8959;-76
2022/10/20 15:20:37;;;;;;;;;8.00;8.00;;;;;;;;5164654;28;8956;-75
2022/10/20 15:23:14;;;;;;;;;8.20;8.20;;;;;;;;5148565;28;8846;-75
2022/10/20 15:25:48;;;;;;;;;5.20;5.20;;;;;;;;5165156;28;9219;-76
2022/10/20 15:28:21;;;;;;;;;15.40;13.60;;;;;;;;5164834;28;8803;-77
2022/10/20 15:30:52;;;;;;;;;15.60;15.60;;;;;;;;5164541;28;8845;-77
2022/10/20 15:33:41;;;;;;;;;6.00;6.00;;;;;;;;5166112;28;8795;-74
2022/10/20 15:36:18;;;;;;;;;12.25;11.00;;;;;;;;5163546;28;8865;-76
2022/10/20 15:39:08;;;;;;;;;11.80;11.80;;;;;;;;5164279;28;9585;-76
2022/10/20 15:41:39;;;;;;;;;9.80;9.00;;;;;;;;5148033;28;8839;-75
2022/10/20 15:44:18;;;;;;;;;13.40;13.40;;;;;;;;5164168;28;8811;-77